Cochiti Pueblo, New Mexico
Current Conditions -  °F | °C
As of 11:53 AM on Monday 22 Dec 2014 (Local Time) from KSAF Reporting Station
Clear Clear  
Wind Chill: 52°   Ceiling: Unl
Heat Index: 52°   Visibility: 10mi
Dew Point: 28°   Wind: 23mph
Humidity: 40%   Direction: 280°W
Pressure: 29.75"   Gusts: 33mph
Location:  35.61°N, 106.34°W
Report Text: KSAF 221853Z 28020G29KT 10SM CLR 11/M02 A2975 RMK AO2 PK WND 27030/1837 SLP023 T01111022
Loading
Personal Weather Stations






























Interactive Weather Map New forecast layout! Learn more

10-Day Weather Forecast

Advertisements
Track Severe Weather on mobile